createdAt,value
2022-11-23T00:19:10.998Z,5.70
2022-11-23T00:34:03.623Z,5.80
2022-11-23T00:41:29.708Z,5.80
2022-11-23T00:46:30.082Z,5.90
2022-11-23T00:48:59.215Z,5.90
2022-11-23T00:51:32.161Z,5.90
2022-11-23T00:54:01.063Z,5.90
2022-11-23T00:56:30.712Z,6.00
2022-11-23T00:59:01.442Z,6.00
2022-11-23T01:01:34.054Z,6.00
2022-11-23T01:04:05.692Z,6.00
2022-11-23T01:06:37.532Z,6.10
2022-11-23T01:09:19.847Z,6.10
2022-11-23T01:19:17.172Z,6.20
2022-11-23T01:21:54.416Z,6.20
2022-11-23T01:24:24.495Z,6.20
2022-11-23T01:26:54.213Z,6.30
2022-11-23T01:41:47.287Z,6.30
2022-11-23T01:44:33.636Z,6.60
2022-11-23T01:47:07.475Z,6.30
2022-11-23T01:49:43.414Z,6.30
2022-11-23T01:52:19.971Z,6.30
2022-11-23T01:54:56.039Z,6.20
2022-11-23T01:57:37.379Z,6.30
2022-11-23T02:07:32.535Z,6.70
2022-11-23T02:17:26.397Z,6.80
2022-11-23T02:20:08.769Z,6.50
2022-11-23T02:23:16.791Z,6.10
2022-11-23T02:28:44.368Z,6.40
2022-11-23T02:33:42.082Z,6.30
2022-11-23T02:36:28.174Z,6.30
2022-11-23T02:38:58.371Z,6.30
2022-11-23T02:43:58.051Z,6.40
2022-11-23T03:23:37.885Z,6.40
2022-11-23T03:33:38.611Z,6.00
2022-11-23T03:50:57.611Z,6.70
2022-11-23T03:53:25.716Z,6.40
2022-11-23T03:55:55.486Z,6.00
2022-11-23T03:58:23.524Z,6.00
2022-11-23T04:03:20.119Z,6.90
2022-11-23T04:05:48.307Z,6.00
2022-11-23T04:20:38.763Z,6.40
2022-11-23T04:40:32.392Z,6.30
2022-11-23T04:45:30.416Z,6.20
2022-11-23T05:15:14.793Z,6.00
2022-11-23T05:17:43.383Z,5.40
2022-11-23T05:20:12.797Z,5.40
2022-11-23T05:30:07.681Z,5.40
2022-11-23T05:47:28.997Z,5.40
2022-11-23T05:52:27.133Z,5.40
2022-11-23T06:49:48.122Z,5.50
2022-11-23T07:12:08.806Z,6.00
2022-11-23T07:45:06.248Z,5.60
2022-11-23T07:47:35.039Z,5.60
2022-11-23T08:19:46.770Z,6.10
2022-11-23T08:32:10.119Z,6.40
2022-11-23T08:47:02.612Z,6.20
2022-11-23T09:09:20.200Z,6.50
2022-11-23T09:11:48.365Z,6.20
2022-11-23T09:14:17.149Z,6.60
2022-11-23T09:19:15.418Z,6.60
2022-11-23T09:24:13.383Z,6.60
2022-11-23T09:26:42.059Z,7.30
2022-11-23T09:29:10.609Z,6.90
2022-11-23T09:39:04.847Z,8.10
2022-11-23T09:44:38.914Z,7.80
2022-11-23T09:47:22.062Z,8.10
2022-11-23T09:50:28.498Z,7.70
2022-11-23T09:55:50.454Z,7.80
2022-11-23T09:58:22.088Z,8.30
2022-11-23T10:01:09.411Z,8.80
2022-11-23T10:03:45.416Z,8.00
2022-11-23T10:06:35.732Z,8.30
2022-11-23T10:09:46.845Z,8.20
2022-11-23T10:12:17.800Z,8.40
2022-11-23T10:15:18.987Z,9.00
2022-11-23T10:18:17.127Z,6.30
2022-11-23T10:20:55.540Z,8.30
2022-11-23T10:23:56.901Z,8.70
2022-11-23T10:26:34.296Z,8.10
2022-11-23T10:29:17.024Z,8.60
2022-11-23T10:31:54.114Z,8.20
2022-11-23T10:35:01.772Z,8.10
2022-11-23T10:42:47.337Z,8.50
2022-11-23T10:45:31.349Z,8.20
2022-11-23T10:48:01.397Z,8.50
2022-11-23T10:50:37.613Z,8.30
2022-11-23T10:53:28.265Z,8.70
2022-11-23T10:56:02.853Z,8.50
2022-11-23T10:58:35.116Z,8.70
2022-11-23T11:01:17.648Z,8.90
2022-11-23T11:06:27.852Z,7.90
2022-11-23T11:09:03.964Z,9.80
2022-11-23T11:11:36.392Z,8.60
2022-11-23T11:14:23.535Z,8.50
2022-11-23T11:16:59.357Z,8.70
2022-11-23T11:19:34.635Z,8.30
2022-11-23T11:22:36.623Z,8.80
2022-11-23T11:25:09.170Z,8.90
2022-11-23T11:27:37.438Z,8.80
2022-11-23T11:30:09.212Z,8.90
2022-11-23T11:33:16.285Z,8.80
2022-11-23T11:35:49.775Z,8.80
2022-11-23T11:38:29.902Z,9.20
2022-11-23T11:41:02.375Z,9.20
2022-11-23T11:46:30.003Z,9.50
2022-11-23T11:49:28.172Z,9.40
2022-11-23T11:52:04.592Z,8.90
2022-11-23T11:54:51.970Z,9.50
2022-11-23T11:57:38.831Z,9.90
2022-11-23T12:00:17.252Z,9.50
2022-11-23T12:03:19.195Z,9.50
2022-11-23T12:05:57.130Z,9.50
2022-11-23T12:09:29.472Z,9.60
2022-11-23T12:14:27.633Z,9.40
2022-11-23T12:17:56.101Z,9.70
2022-11-23T12:20:51.316Z,9.60
2022-11-23T12:24:03.486Z,9.40
2022-11-23T12:26:57.925Z,9.90
2022-11-23T12:29:47.284Z,9.90
2022-11-23T12:32:38.339Z,10.00
2022-11-23T12:36:01.619Z,10.00
2022-11-23T12:39:07.182Z,10.00
2022-11-23T12:45:04.582Z,10.20
2022-11-23T12:47:49.915Z,10.00
2022-11-23T12:50:59.288Z,9.90
2022-11-23T12:54:07.603Z,10.50
2022-11-23T12:57:15.831Z,9.90
2022-11-23T12:59:57.708Z,9.90
2022-11-23T13:03:00.193Z,9.80
2022-11-23T13:06:13.947Z,10.20
2022-11-23T13:09:10.630Z,9.90
2022-11-23T13:12:23.029Z,10.30
2022-11-23T13:15:18.066Z,9.70
2022-11-23T13:18:38.129Z,9.80
2022-11-23T13:21:27.112Z,9.30
2022-11-23T13:26:29.259Z,9.60
2022-11-23T13:28:59.177Z,9.30
2022-11-23T13:31:30.918Z,9.60
2022-11-23T13:34:02.951Z,9.60
2022-11-23T13:39:57.371Z,10.10
2022-11-23T13:42:29.127Z,9.20
2022-11-23T13:45:22.402Z,9.90
2022-11-23T13:48:48.931Z,9.10
2022-11-23T13:53:41.105Z,9.60
2022-11-23T13:56:27.169Z,9.30
2022-11-23T13:59:25.302Z,9.70
2022-11-23T14:02:31.586Z,9.60
2022-11-23T14:05:36.353Z,9.60
2022-11-23T14:08:06.517Z,9.60
2022-11-23T14:10:36.006Z,9.80
2022-11-23T14:13:25.304Z,9.30
2022-11-23T14:15:59.865Z,10.00
2022-11-23T14:21:28.042Z,9.20
2022-11-23T14:24:22.140Z,9.30
2022-11-23T14:27:46.246Z,9.20
2022-11-23T14:30:53.893Z,9.20
2022-11-23T14:33:47.273Z,8.90
2022-11-23T14:36:24.051Z,9.20
2022-11-23T14:39:29.181Z,9.20
2022-11-23T14:42:03.159Z,8.90
2022-11-23T14:44:37.188Z,9.40
2022-11-23T14:47:09.668Z,9.20
2022-11-23T14:49:39.205Z,9.60
2022-11-23T14:54:36.581Z,9.10
2022-11-23T14:57:06.662Z,9.00
2022-11-23T14:59:39.104Z,9.00
2022-11-23T15:05:01.628Z,10.70
2022-11-23T15:07:45.551Z,8.80
2022-11-23T15:10:34.293Z,8.90
2022-11-23T15:15:33.181Z,9.00
2022-11-23T15:18:03.831Z,8.80
2022-11-23T15:20:36.948Z,8.80
2022-11-23T15:23:06.171Z,8.60
2022-11-23T15:30:32.093Z,9.30
2022-11-23T15:33:08.244Z,8.70
2022-11-23T15:35:39.587Z,8.70
2022-11-23T15:38:22.007Z,8.30
2022-11-23T15:40:52.357Z,9.10
2022-11-23T15:43:21.236Z,8.70
2022-11-23T15:48:30.485Z,8.80
2022-11-23T15:51:05.007Z,8.30
2022-11-23T15:53:45.012Z,8.50
2022-11-23T15:56:38.513Z,8.50
2022-11-23T15:59:58.303Z,8.40
2022-11-23T16:02:30.886Z,8.40
2022-11-23T16:05:19.204Z,8.70
2022-11-23T16:08:00.181Z,8.60
2022-11-23T16:10:35.042Z,8.70
2022-11-23T16:13:08.833Z,8.30
2022-11-23T16:18:16.949Z,8.10
2022-11-23T16:20:47.011Z,8.30
2022-11-23T16:23:29.142Z,7.60
2022-11-23T16:26:06.372Z,7.70
2022-11-23T16:28:38.156Z,7.70
2022-11-23T16:31:30.103Z,7.90
2022-11-23T16:33:58.590Z,8.10
2022-11-23T16:36:29.423Z,7.80
2022-11-23T16:44:02.234Z,8.30
2022-11-23T16:51:29.279Z,7.70
2022-11-23T16:54:17.024Z,7.70
2022-11-23T16:59:20.555Z,7.70
2022-11-23T17:01:56.966Z,7.30
2022-11-23T17:04:26.512Z,7.60
2022-11-23T17:06:54.622Z,7.30
2022-11-23T17:09:22.643Z,7.20
2022-11-23T17:11:51.333Z,7.20
2022-11-23T17:14:28.073Z,7.70
2022-11-23T17:17:01.965Z,8.00
2022-11-23T17:24:27.968Z,6.90
2022-11-23T17:31:53.352Z,7.30
2022-11-23T17:36:52.806Z,7.50
2022-11-23T17:39:25.712Z,7.60
2022-11-23T17:41:53.870Z,7.20
2022-11-23T17:46:53.738Z,7.40
2022-11-23T17:51:58.704Z,7.00
2022-11-23T17:54:26.748Z,7.40
2022-11-23T17:59:24.685Z,7.50
2022-11-23T18:01:52.756Z,7.70
2022-11-23T18:04:20.842Z,7.80
2022-11-23T18:06:48.858Z,7.40
2022-11-23T18:19:10.995Z,7.60
2022-11-23T18:24:08.916Z,7.40
2022-11-23T18:26:37.457Z,6.90
2022-11-23T18:34:05.006Z,7.40
2022-11-23T18:36:33.575Z,8.90
2022-11-23T18:43:58.799Z,6.90
2022-11-23T18:48:58.495Z,6.90
2022-11-23T18:51:26.664Z,7.00
2022-11-23T18:56:23.891Z,6.50
2022-11-23T18:58:52.028Z,6.60
2022-11-23T19:01:23.614Z,7.00
2022-11-23T19:03:54.748Z,6.70
2022-11-23T19:06:24.253Z,6.40
2022-11-23T19:08:56.972Z,6.70
2022-11-23T19:11:28.694Z,7.10
2022-11-23T19:14:01.395Z,6.60
2022-11-23T19:16:32.947Z,6.90
2022-11-23T19:19:07.635Z,6.60
2022-11-23T19:21:37.009Z,6.50
2022-11-23T19:24:07.562Z,6.80
2022-11-23T19:31:33.861Z,6.00
2022-11-23T19:34:06.172Z,6.40
2022-11-23T19:36:37.192Z,6.40
2022-11-23T19:39:08.402Z,6.10
2022-11-23T19:49:03.458Z,6.10
2022-11-23T19:51:31.756Z,6.70
2022-11-23T19:54:01.092Z,6.40
2022-11-23T19:56:30.581Z,6.20
2022-11-23T19:59:01.599Z,5.90
2022-11-23T20:01:33.601Z,6.50
2022-11-23T20:04:08.590Z,6.20
2022-11-23T20:06:39.815Z,6.20
2022-11-23T20:09:16.772Z,6.10
2022-11-23T20:14:19.229Z,6.20
2022-11-23T20:16:47.678Z,5.60
2022-11-23T20:19:15.917Z,6.00
2022-11-23T20:24:15.051Z,6.00
2022-11-23T20:36:47.010Z,5.90
2022-11-23T20:44:15.661Z,5.70
2022-11-23T21:19:38.026Z,5.30
2022-11-23T21:22:16.724Z,5.30
2022-11-23T21:27:14.782Z,7.50
2022-11-23T21:37:13.280Z,5.30
2022-11-23T22:36:54.915Z,5.30
2022-11-23T23:11:39.124Z,5.30
2022-11-23T23:29:11.100Z,5.20
2022-11-23T23:36:40.459Z,5.20
2022-11-23T23:56:30.742Z,5.40
2022-11-23T23:59:00.364Z,5.30
